sensor_id;sensor_type;location;lat;lon;timestamp;P1;durP1;ratioP1;P2;durP2;ratioP2
12129;SDS011;6128;59.340;18.040;2023-06-22T00:01:12;4.87;;;4.07;;
12129;SDS011;6128;59.340;18.040;2023-06-22T00:03:41;5.00;;;4.70;;
12129;SDS011;6128;59.340;18.040;2023-06-22T00:06:08;4.73;;;4.40;;
12129;SDS011;6128;59.340;18.040;2023-06-22T00:08:35;4.67;;;4.33;;
12129;SDS011;6128;59.340;18.040;2023-06-22T00:11:02;4.83;;;4.43;;
12129;SDS011;6128;59.340;18.040;2023-06-22T00:13:29;4.60;;;4.23;;
12129;SDS011;6128;59.340;18.040;2023-06-22T00:15:59;5.03;;;4.63;;
12129;SDS011;6128;59.340;18.040;2023-06-22T00:18:27;4.23;;;3.83;;
12129;SDS011;6128;59.340;18.040;2023-06-22T00:20:57;4.93;;;4.63;;
12129;SDS011;6128;59.340;18.040;2023-06-22T00:23:24;4.77;;;4.47;;
12129;SDS011;6128;59.340;18.040;2023-06-22T00:25:51;5.43;;;5.03;;
12129;SDS011;6128;59.340;18.040;2023-06-22T00:28:19;5.17;;;4.67;;
12129;SDS011;6128;59.340;18.040;2023-06-22T00:30:46;4.43;;;4.13;;
12129;SDS011;6128;59.340;18.040;2023-06-22T00:33:14;5.67;;;5.20;;
12129;SDS011;6128;59.340;18.040;2023-06-22T00:35:42;4.77;;;4.47;;
12129;SDS011;6128;59.340;18.040;2023-06-22T00:38:10;4.90;;;4.60;;
12129;SDS011;6128;59.340;18.040;2023-06-22T00:40:38;5.10;;;4.80;;
12129;SDS011;6128;59.340;18.040;2023-06-22T00:43:05;4.97;;;4.47;;
12129;SDS011;6128;59.340;18.040;2023-06-22T00:45:35;5.40;;;5.00;;
12129;SDS011;6128;59.340;18.040;2023-06-22T00:48:02;5.17;;;4.77;;
12129;SDS011;6128;59.340;18.040;2023-06-22T00:50:31;6.33;;;4.90;;
12129;SDS011;6128;59.340;18.040;2023-06-22T00:53:00;5.10;;;4.70;;
12129;SDS011;6128;59.340;18.040;2023-06-22T00:55:35;5.27;;;4.87;;
12129;SDS011;6128;59.340;18.040;2023-06-22T00:58:04;5.70;;;5.30;;
12129;SDS011;6128;59.340;18.040;2023-06-22T01:00:35;5.27;;;4.90;;
12129;SDS011;6128;59.340;18.040;2023-06-22T01:03:03;5.07;;;4.77;;
12129;SDS011;6128;59.340;18.040;2023-06-22T01:05:33;5.50;;;5.13;;
12129;SDS011;6128;59.340;18.040;2023-06-22T01:08:06;5.73;;;5.33;;
12129;SDS011;6128;59.340;18.040;2023-06-22T01:10:44;5.30;;;5.00;;
12129;SDS011;6128;59.340;18.040;2023-06-22T01:13:20;5.73;;;5.33;;
12129;SDS011;6128;59.340;18.040;2023-06-22T01:15:53;6.00;;;5.53;;
12129;SDS011;6128;59.340;18.040;2023-06-22T01:18:26;5.73;;;5.33;;
12129;SDS011;6128;59.340;18.040;2023-06-22T01:20:56;6.40;;;5.80;;
12129;SDS011;6128;59.340;18.040;2023-06-22T01:23:29;5.77;;;5.37;;
12129;SDS011;6128;59.340;18.040;2023-06-22T01:26:06;6.43;;;5.93;;
12129;SDS011;6128;59.340;18.040;2023-06-22T01:28:47;6.20;;;5.77;;
12129;SDS011;6128;59.340;18.040;2023-06-22T01:31:16;5.87;;;5.47;;
12129;SDS011;6128;59.340;18.040;2023-06-22T01:33:48;6.17;;;5.77;;
12129;SDS011;6128;59.340;18.040;2023-06-22T01:36:22;6.97;;;6.57;;
12129;SDS011;6128;59.340;18.040;2023-06-22T01:38:53;7.53;;;6.93;;
12129;SDS011;6128;59.340;18.040;2023-06-22T01:41:21;7.17;;;6.57;;
12129;SDS011;6128;59.340;18.040;2023-06-22T01:43:52;6.87;;;6.43;;
12129;SDS011;6128;59.340;18.040;2023-06-22T01:46:21;6.77;;;6.37;;
12129;SDS011;6128;59.340;18.040;2023-06-22T01:48:49;6.83;;;6.37;;
12129;SDS011;6128;59.340;18.040;2023-06-22T01:51:17;7.20;;;6.70;;
12129;SDS011;6128;59.340;18.040;2023-06-22T01:53:44;7.23;;;6.63;;
12129;SDS011;6128;59.340;18.040;2023-06-22T01:56:12;7.90;;;7.20;;
12129;SDS011;6128;59.340;18.040;2023-06-22T01:58:45;7.73;;;7.13;;
12129;SDS011;6128;59.340;18.040;2023-06-22T02:01:24;7.00;;;6.60;;
12129;SDS011;6128;59.340;18.040;2023-06-22T02:03:57;7.80;;;7.30;;
12129;SDS011;6128;59.340;18.040;2023-06-22T02:06:39;7.87;;;7.20;;
12129;SDS011;6128;59.340;18.040;2023-06-22T02:09:16;7.47;;;6.90;;
12129;SDS011;6128;59.340;18.040;2023-06-22T02:11:46;6.60;;;6.20;;
12129;SDS011;6128;59.340;18.040;2023-06-22T02:14:16;7.40;;;6.90;;
12129;SDS011;6128;59.340;18.040;2023-06-22T02:16:46;7.10;;;6.70;;
12129;SDS011;6128;59.340;18.040;2023-06-22T02:19:14;7.30;;;6.80;;
12129;SDS011;6128;59.340;18.040;2023-06-22T02:21:48;7.17;;;6.63;;
12129;SDS011;6128;59.340;18.040;2023-06-22T02:24:15;7.10;;;6.70;;
12129;SDS011;6128;59.340;18.040;2023-06-22T02:26:43;6.87;;;6.47;;
12129;SDS011;6128;59.340;18.040;2023-06-22T02:29:11;7.10;;;6.60;;
12129;SDS011;6128;59.340;18.040;2023-06-22T02:31:38;7.20;;;6.70;;
12129;SDS011;6128;59.340;18.040;2023-06-22T02:34:06;7.40;;;6.90;;
12129;SDS011;6128;59.340;18.040;2023-06-22T02:36:33;7.17;;;6.67;;
12129;SDS011;6128;59.340;18.040;2023-06-22T02:39:00;7.10;;;6.50;;
12129;SDS011;6128;59.340;18.040;2023-06-22T02:41:28;6.77;;;6.37;;
12129;SDS011;6128;59.340;18.040;2023-06-22T02:43:56;6.93;;;6.43;;
12129;SDS011;6128;59.340;18.040;2023-06-22T02:46:22;7.30;;;6.80;;
12129;SDS011;6128;59.340;18.040;2023-06-22T02:48:49;7.30;;;6.80;;
12129;SDS011;6128;59.340;18.040;2023-06-22T02:51:18;6.60;;;6.20;;
12129;SDS011;6128;59.340;18.040;2023-06-22T02:53:45;7.00;;;6.43;;
12129;SDS011;6128;59.340;18.040;2023-06-22T02:56:12;6.80;;;6.40;;
12129;SDS011;6128;59.340;18.040;2023-06-22T02:58:40;7.43;;;6.93;;
12129;SDS011;6128;59.340;18.040;2023-06-22T03:01:08;7.20;;;6.73;;
12129;SDS011;6128;59.340;18.040;2023-06-22T03:03:38;7.73;;;7.13;;
12129;SDS011;6128;59.340;18.040;2023-06-22T03:06:05;6.97;;;6.47;;
12129;SDS011;6128;59.340;18.040;2023-06-22T03:08:40;6.83;;;6.43;;
12129;SDS011;6128;59.340;18.040;2023-06-22T03:11:07;7.30;;;6.70;;
12129;SDS011;6128;59.340;18.040;2023-06-22T03:13:35;7.17;;;6.67;;
12129;SDS011;6128;59.340;18.040;2023-06-22T03:16:02;6.70;;;6.20;;
12129;SDS011;6128;59.340;18.040;2023-06-22T03:18:29;6.50;;;6.10;;
12129;SDS011;6128;59.340;18.040;2023-06-22T03:20:57;6.90;;;6.47;;
12129;SDS011;6128;59.340;18.040;2023-06-22T03:23:24;6.37;;;5.97;;
12129;SDS011;6128;59.340;18.040;2023-06-22T03:25:53;7.03;;;6.50;;
12129;SDS011;6128;59.340;18.040;2023-06-22T03:28:20;6.60;;;6.10;;
12129;SDS011;6128;59.340;18.040;2023-06-22T03:30:48;6.83;;;6.43;;
12129;SDS011;6128;59.340;18.040;2023-06-22T03:33:15;7.00;;;6.47;;
12129;SDS011;6128;59.340;18.040;2023-06-22T03:35:42;7.03;;;6.53;;
12129;SDS011;6128;59.340;18.040;2023-06-22T03:38:15;7.20;;;6.63;;
12129;SDS011;6128;59.340;18.040;2023-06-22T03:40:44;7.00;;;6.50;;
12129;SDS011;6128;59.340;18.040;2023-06-22T03:43:14;7.17;;;6.63;;
12129;SDS011;6128;59.340;18.040;2023-06-22T03:45:41;6.80;;;6.30;;
12129;SDS011;6128;59.340;18.040;2023-06-22T03:48:10;7.13;;;6.53;;
12129;SDS011;6128;59.340;18.040;2023-06-22T03:50:37;7.30;;;6.63;;
12129;SDS011;6128;59.340;18.040;2023-06-22T03:53:04;6.50;;;6.10;;
12129;SDS011;6128;59.340;18.040;2023-06-22T03:55:33;7.07;;;6.60;;
12129;SDS011;6128;59.340;18.040;2023-06-22T03:58:01;6.87;;;6.43;;
12129;SDS011;6128;59.340;18.040;2023-06-22T04:00:32;7.57;;;6.93;;
12129;SDS011;6128;59.340;18.040;2023-06-22T04:03:01;6.50;;;6.00;;
12129;SDS011;6128;59.340;18.040;2023-06-22T04:05:28;6.83;;;6.33;;
12129;SDS011;6128;59.340;18.040;2023-06-22T04:07:57;7.13;;;6.53;;
12129;SDS011;6128;59.340;18.040;2023-06-22T04:10:25;6.97;;;6.33;;
12129;SDS011;6128;59.340;18.040;2023-06-22T04:12:53;6.33;;;5.77;;
12129;SDS011;6128;59.340;18.040;2023-06-22T04:15:21;6.72;;;6.20;;
12129;SDS011;6128;59.340;18.040;2023-06-22T04:17:54;6.60;;;6.10;;
12129;SDS011;6128;59.340;18.040;2023-06-22T04:20:25;6.95;;;6.35;;
12129;SDS011;6128;59.340;18.040;2023-06-22T04:22:52;6.00;;;5.55;;
12129;SDS011;6128;59.340;18.040;2023-06-22T04:25:20;6.82;;;6.32;;
12129;SDS011;6128;59.340;18.040;2023-06-22T04:27:48;6.10;;;5.80;;
12129;SDS011;6128;59.340;18.040;2023-06-22T04:30:16;6.78;;;6.28;;
12129;SDS011;6128;59.340;18.040;2023-06-22T04:32:43;5.70;;;5.30;;
12129;SDS011;6128;59.340;18.040;2023-06-22T04:35:12;6.07;;;5.65;;
12129;SDS011;6128;59.340;18.040;2023-06-22T04:37:39;5.55;;;5.25;;
12129;SDS011;6128;59.340;18.040;2023-06-22T04:40:07;6.18;;;5.15;;
12129;SDS011;6128;59.340;18.040;2023-06-22T04:42:35;5.45;;;5.10;;
12129;SDS011;6128;59.340;18.040;2023-06-22T04:45:04;6.13;;;5.72;;
12129;SDS011;6128;59.340;18.040;2023-06-22T04:47:35;5.60;;;5.22;;
12129;SDS011;6128;59.340;18.040;2023-06-22T04:50:25;6.35;;;5.20;;
12129;SDS011;6128;59.340;18.040;2023-06-22T04:52:52;5.85;;;5.35;;
12129;SDS011;6128;59.340;18.040;2023-06-22T04:55:20;5.45;;;4.95;;
12129;SDS011;6128;59.340;18.040;2023-06-22T04:57:47;5.70;;;5.15;;
12129;SDS011;6128;59.340;18.040;2023-06-22T05:00:16;5.43;;;5.13;;
12129;SDS011;6128;59.340;18.040;2023-06-22T05:02:44;7.95;;;5.32;;
12129;SDS011;6128;59.340;18.040;2023-06-22T05:05:13;5.57;;;5.05;;
12129;SDS011;6128;59.340;18.040;2023-06-22T05:07:43;5.03;;;4.70;;
12129;SDS011;6128;59.340;18.040;2023-06-22T05:10:13;5.07;;;4.78;;
12129;SDS011;6128;59.340;18.040;2023-06-22T05:12:41;5.75;;;5.35;;
12129;SDS011;6128;59.340;18.040;2023-06-22T05:15:11;5.07;;;4.70;;
12129;SDS011;6128;59.340;18.040;2023-06-22T05:17:38;5.03;;;4.63;;
12129;SDS011;6128;59.340;18.040;2023-06-22T05:20:08;5.13;;;4.53;;
12129;SDS011;6128;59.340;18.040;2023-06-22T05:22:36;5.28;;;4.88;;
12129;SDS011;6128;59.340;18.040;2023-06-22T05:25:08;5.25;;;4.85;;
12129;SDS011;6128;59.340;18.040;2023-06-22T05:27:39;5.22;;;4.55;;
12129;SDS011;6128;59.340;18.040;2023-06-22T05:30:09;5.28;;;4.78;;
12129;SDS011;6128;59.340;18.040;2023-06-22T05:32:36;5.22;;;4.93;;
12129;SDS011;6128;59.340;18.040;2023-06-22T05:35:04;4.65;;;4.25;;
12129;SDS011;6128;59.340;18.040;2023-06-22T05:37:32;4.18;;;3.97;;
12129;SDS011;6128;59.340;18.040;2023-06-22T05:39:59;5.80;;;4.80;;
12129;SDS011;6128;59.340;18.040;2023-06-22T05:42:28;4.82;;;4.40;;
12129;SDS011;6128;59.340;18.040;2023-06-22T05:44:55;5.00;;;4.50;;
12129;SDS011;6128;59.340;18.040;2023-06-22T05:47:23;4.90;;;4.53;;
12129;SDS011;6128;59.340;18.040;2023-06-22T05:49:51;4.78;;;4.32;;
12129;SDS011;6128;59.340;18.040;2023-06-22T05:52:18;4.90;;;4.50;;
12129;SDS011;6128;59.340;18.040;2023-06-22T05:54:45;5.00;;;4.60;;
12129;SDS011;6128;59.340;18.040;2023-06-22T05:57:12;4.82;;;4.53;;
12129;SDS011;6128;59.340;18.040;2023-06-22T05:59:41;4.32;;;4.07;;
12129;SDS011;6128;59.340;18.040;2023-06-22T06:02:08;5.38;;;4.22;;
12129;SDS011;6128;59.340;18.040;2023-06-22T06:04:36;5.05;;;4.25;;
12129;SDS011;6128;59.340;18.040;2023-06-22T06:07:03;4.38;;;4.07;;
12129;SDS011;6128;59.340;18.040;2023-06-22T06:09:31;4.50;;;4.20;;
12129;SDS011;6128;59.340;18.040;2023-06-22T06:11:58;4.15;;;3.85;;
12129;SDS011;6128;59.340;18.040;2023-06-22T06:14:28;5.07;;;4.38;;
12129;SDS011;6128;59.340;18.040;2023-06-22T06:16:56;4.30;;;4.10;;
12129;SDS011;6128;59.340;18.040;2023-06-22T06:19:23;5.90;;;4.45;;
12129;SDS011;6128;59.340;18.040;2023-06-22T06:21:51;6.03;;;4.80;;
12129;SDS011;6128;59.340;18.040;2023-06-22T06:24:18;7.82;;;5.03;;
12129;SDS011;6128;59.340;18.040;2023-06-22T06:26:45;4.93;;;4.47;;
12129;SDS011;6128;59.340;18.040;2023-06-22T06:29:13;4.70;;;4.40;;
12129;SDS011;6128;59.340;18.040;2023-06-22T06:31:41;4.82;;;4.28;;
12129;SDS011;6128;59.340;18.040;2023-06-22T06:34:10;5.93;;;4.15;;
12129;SDS011;6128;59.340;18.040;2023-06-22T06:36:37;4.32;;;3.92;;
12129;SDS011;6128;59.340;18.040;2023-06-22T06:39:04;7.55;;;4.20;;
12129;SDS011;6128;59.340;18.040;2023-06-22T06:41:31;6.30;;;4.18;;
12129;SDS011;6128;59.340;18.040;2023-06-22T06:43:59;3.83;;;3.53;;
12129;SDS011;6128;59.340;18.040;2023-06-22T06:46:26;3.88;;;3.47;;
12129;SDS011;6128;59.340;18.040;2023-06-22T06:48:53;5.07;;;3.65;;
12129;SDS011;6128;59.340;18.040;2023-06-22T06:51:22;5.45;;;4.10;;
12129;SDS011;6128;59.340;18.040;2023-06-22T06:53:49;4.07;;;3.67;;
12129;SDS011;6128;59.340;18.040;2023-06-22T06:56:16;4.07;;;3.75;;
12129;SDS011;6128;59.340;18.040;2023-06-22T06:58:43;4.70;;;3.63;;
12129;SDS011;6128;59.340;18.040;2023-06-22T07:01:10;6.50;;;3.28;;
12129;SDS011;6128;59.340;18.040;2023-06-22T07:03:38;4.10;;;3.10;;
12129;SDS011;6128;59.340;18.040;2023-06-22T07:06:05;4.55;;;3.15;;
12129;SDS011;6128;59.340;18.040;2023-06-22T07:08:33;3.33;;;3.13;;
12129;SDS011;6128;59.340;18.040;2023-06-22T07:11:02;3.33;;;3.03;;
12129;SDS011;6128;59.340;18.040;2023-06-22T07:13:29;3.40;;;3.05;;
12129;SDS011;6128;59.340;18.040;2023-06-22T07:15:56;5.55;;;3.38;;
12129;SDS011;6128;59.340;18.040;2023-06-22T07:18:24;3.67;;;3.35;;
12129;SDS011;6128;59.340;18.040;2023-06-22T07:20:51;3.55;;;3.25;;
12129;SDS011;6128;59.340;18.040;2023-06-22T07:23:22;3.88;;;3.03;;
12129;SDS011;6128;59.340;18.040;2023-06-22T07:25:50;3.80;;;3.40;;
12129;SDS011;6128;59.340;18.040;2023-06-22T07:28:18;3.80;;;3.40;;
12129;SDS011;6128;59.340;18.040;2023-06-22T07:30:45;5.22;;;3.10;;
12129;SDS011;6128;59.340;18.040;2023-06-22T07:33:13;3.45;;;3.10;;
12129;SDS011;6128;59.340;18.040;2023-06-22T07:35:40;3.20;;;3.00;;
12129;SDS011;6128;59.340;18.040;2023-06-22T07:38:07;3.70;;;3.10;;
12129;SDS011;6128;59.340;18.040;2023-06-22T07:40:34;3.72;;;3.33;;
12129;SDS011;6128;59.340;18.040;2023-06-22T07:43:03;3.28;;;2.97;;
12129;SDS011;6128;59.340;18.040;2023-06-22T07:45:30;3.20;;;2.90;;
12129;SDS011;6128;59.340;18.040;2023-06-22T07:48:00;3.85;;;2.97;;
12129;SDS011;6128;59.340;18.040;2023-06-22T07:50:29;3.00;;;2.70;;
12129;SDS011;6128;59.340;18.040;2023-06-22T07:52:56;7.82;;;3.13;;
12129;SDS011;6128;59.340;18.040;2023-06-22T07:55:23;4.82;;;3.15;;
12129;SDS011;6128;59.340;18.040;2023-06-22T07:57:50;4.20;;;2.72;;
12129;SDS011;6128;59.340;18.040;2023-06-22T08:00:19;6.05;;;3.20;;
12129;SDS011;6128;59.340;18.040;2023-06-22T08:02:47;4.30;;;3.20;;
12129;SDS011;6128;59.340;18.040;2023-06-22T08:05:14;3.90;;;3.53;;
12129;SDS011;6128;59.340;18.040;2023-06-22T08:07:42;5.85;;;3.20;;
12129;SDS011;6128;59.340;18.040;2023-06-22T08:10:10;3.20;;;2.90;;
12129;SDS011;6128;59.340;18.040;2023-06-22T08:12:38;3.15;;;2.78;;
12129;SDS011;6128;59.340;18.040;2023-06-22T08:15:06;4.20;;;2.63;;
12129;SDS011;6128;59.340;18.040;2023-06-22T08:17:35;4.97;;;3.40;;
12129;SDS011;6128;59.340;18.040;2023-06-22T08:20:06;4.38;;;2.67;;
12129;SDS011;6128;59.340;18.040;2023-06-22T08:22:36;3.15;;;2.88;;
12129;SDS011;6128;59.340;18.040;2023-06-22T08:25:04;3.63;;;2.88;;
12129;SDS011;6128;59.340;18.040;2023-06-22T08:27:32;3.55;;;2.65;;
12129;SDS011;6128;59.340;18.040;2023-06-22T08:29:59;2.92;;;2.72;;
12129;SDS011;6128;59.340;18.040;2023-06-22T08:32:27;4.13;;;2.70;;
12129;SDS011;6128;59.340;18.040;2023-06-22T08:34:56;3.00;;;2.40;;
12129;SDS011;6128;59.340;18.040;2023-06-22T08:37:25;3.00;;;2.67;;
12129;SDS011;6128;59.340;18.040;2023-06-22T08:40:01;4.32;;;2.95;;
12129;SDS011;6128;59.340;18.040;2023-06-22T08:42:30;3.58;;;2.50;;
12129;SDS011;6128;59.340;18.040;2023-06-22T08:44:57;2.55;;;2.35;;
12129;SDS011;6128;59.340;18.040;2023-06-22T08:47:24;4.50;;;3.65;;
12129;SDS011;6128;59.340;18.040;2023-06-22T08:49:53;3.85;;;2.97;;
12129;SDS011;6128;59.340;18.040;2023-06-22T08:52:22;4.10;;;2.88;;
12129;SDS011;6128;59.340;18.040;2023-06-22T08:54:50;4.13;;;3.03;;
12129;SDS011;6128;59.340;18.040;2023-06-22T08:57:17;3.20;;;2.65;;
12129;SDS011;6128;59.340;18.040;2023-06-22T08:59:44;2.97;;;2.63;;
12129;SDS011;6128;59.340;18.040;2023-06-22T09:02:11;4.05;;;2.70;;
12129;SDS011;6128;59.340;18.040;2023-06-22T09:04:38;4.30;;;2.42;;
12129;SDS011;6128;59.340;18.040;2023-06-22T09:07:08;3.42;;;2.90;;
12129;SDS011;6128;59.340;18.040;2023-06-22T09:09:35;3.10;;;2.75;;
12129;SDS011;6128;59.340;18.040;2023-06-22T09:12:02;2.55;;;2.35;;
12129;SDS011;6128;59.340;18.040;2023-06-22T09:14:29;2.40;;;2.20;;
12129;SDS011;6128;59.340;18.040;2023-06-22T09:16:57;2.25;;;1.98;;
12129;SDS011;6128;59.340;18.040;2023-06-22T09:19:24;3.58;;;2.50;;
12129;SDS011;6128;59.340;18.040;2023-06-22T09:21:51;4.57;;;2.30;;
12129;SDS011;6128;59.340;18.040;2023-06-22T09:24:20;4.28;;;2.60;;
12129;SDS011;6128;59.340;18.040;2023-06-22T09:26:47;3.83;;;2.35;;
12129;SDS011;6128;59.340;18.040;2023-06-22T09:29:15;2.85;;;2.63;;
12129;SDS011;6128;59.340;18.040;2023-06-22T09:31:43;4.60;;;2.42;;
12129;SDS011;6128;59.340;18.040;2023-06-22T09:34:10;3.65;;;2.20;;
12129;SDS011;6128;59.340;18.040;2023-06-22T09:36:37;3.97;;;2.75;;
12129;SDS011;6128;59.340;18.040;2023-06-22T09:39:05;3.90;;;2.40;;
12129;SDS011;6128;59.340;18.040;2023-06-22T09:41:34;2.58;;;2.33;;
12129;SDS011;6128;59.340;18.040;2023-06-22T09:44:01;3.15;;;2.72;;
12129;SDS011;6128;59.340;18.040;2023-06-22T09:46:29;4.30;;;2.40;;
12129;SDS011;6128;59.340;18.040;2023-06-22T09:48:56;3.88;;;2.60;;
12129;SDS011;6128;59.340;18.040;2023-06-22T09:51:23;3.58;;;2.58;;
12129;SDS011;6128;59.340;18.040;2023-06-22T09:53:50;3.38;;;2.13;;
12129;SDS011;6128;59.340;18.040;2023-06-22T09:56:18;5.82;;;2.78;;
12129;SDS011;6128;59.340;18.040;2023-06-22T09:58:47;2.90;;;2.60;;
12129;SDS011;6128;59.340;18.040;2023-06-22T10:01:17;6.25;;;2.58;;
12129;SDS011;6128;59.340;18.040;2023-06-22T10:03:46;2.65;;;2.42;;
12129;SDS011;6128;59.340;18.040;2023-06-22T10:06:15;4.40;;;2.47;;
12129;SDS011;6128;59.340;18.040;2023-06-22T10:08:42;3.58;;;2.22;;
12129;SDS011;6128;59.340;18.040;2023-06-22T10:11:09;4.07;;;2.47;;
12129;SDS011;6128;59.340;18.040;2023-06-22T10:13:36;5.07;;;2.38;;
12129;SDS011;6128;59.340;18.040;2023-06-22T10:16:05;2.22;;;1.98;;
12129;SDS011;6128;59.340;18.040;2023-06-22T10:18:32;2.92;;;1.55;;
12129;SDS011;6128;59.340;18.040;2023-06-22T10:21:00;2.75;;;1.98;;
12129;SDS011;6128;59.340;18.040;2023-06-22T10:23:27;3.22;;;1.98;;
12129;SDS011;6128;59.340;18.040;2023-06-22T10:25:57;2.10;;;1.67;;
12129;SDS011;6128;59.340;18.040;2023-06-22T10:28:24;3.25;;;2.00;;
12129;SDS011;6128;59.340;18.040;2023-06-22T10:30:52;4.45;;;1.90;;
12129;SDS011;6128;59.340;18.040;2023-06-22T10:33:25;2.75;;;1.77;;
12129;SDS011;6128;59.340;18.040;2023-06-22T10:35:52;3.28;;;1.75;;
12129;SDS011;6128;59.340;18.040;2023-06-22T10:38:20;3.55;;;1.75;;
12129;SDS011;6128;59.340;18.040;2023-06-22T10:40:47;2.72;;;1.85;;
12129;SDS011;6128;59.340;18.040;2023-06-22T10:43:14;3.33;;;1.92;;
12129;SDS011;6128;59.340;18.040;2023-06-22T10:45:41;5.43;;;1.60;;
12129;SDS011;6128;59.340;18.040;2023-06-22T10:48:09;2.78;;;1.98;;
12129;SDS011;6128;59.340;18.040;2023-06-22T10:50:37;3.28;;;1.63;;
12129;SDS011;6128;59.340;18.040;2023-06-22T10:53:04;6.13;;;2.00;;
12129;SDS011;6128;59.340;18.040;2023-06-22T10:55:31;2.17;;;1.63;;
12129;SDS011;6128;59.340;18.040;2023-06-22T10:58:02;3.28;;;2.03;;
12129;SDS011;6128;59.340;18.040;2023-06-22T11:00:29;4.13;;;2.00;;
12129;SDS011;6128;59.340;18.040;2023-06-22T11:02:56;2.58;;;1.70;;
12129;SDS011;6128;59.340;18.040;2023-06-22T11:05:24;4.82;;;1.85;;
12129;SDS011;6128;59.340;18.040;2023-06-22T11:07:52;3.47;;;1.63;;
12129;SDS011;6128;59.340;18.040;2023-06-22T11:10:19;3.78;;;1.88;;
12129;SDS011;6128;59.340;18.040;2023-06-22T11:12:46;5.13;;;2.08;;
12129;SDS011;6128;59.340;18.040;2023-06-22T11:15:13;2.85;;;2.00;;
12129;SDS011;6128;59.340;18.040;2023-06-22T11:17:41;2.45;;;1.90;;
12129;SDS011;6128;59.340;18.040;2023-06-22T11:20:08;2.38;;;1.70;;
12129;SDS011;6128;59.340;18.040;2023-06-22T11:22:36;5.32;;;1.92;;
12129;SDS011;6128;59.340;18.040;2023-06-22T11:25:06;4.13;;;1.40;;
12129;SDS011;6128;59.340;18.040;2023-06-22T11:27:35;3.22;;;1.60;;
12129;SDS011;6128;59.340;18.040;2023-06-22T11:30:02;5.55;;;1.58;;
12129;SDS011;6128;59.340;18.040;2023-06-22T11:32:30;3.08;;;1.50;;
12129;SDS011;6128;59.340;18.040;2023-06-22T11:34:57;2.65;;;1.45;;
12129;SDS011;6128;59.340;18.040;2023-06-22T11:37:24;3.03;;;1.50;;
12129;SDS011;6128;59.340;18.040;2023-06-22T11:39:51;1.33;;;1.20;;
12129;SDS011;6128;59.340;18.040;2023-06-22T11:42:21;2.60;;;1.38;;
12129;SDS011;6128;59.340;18.040;2023-06-22T11:44:50;2.78;;;1.23;;
12129;SDS011;6128;59.340;18.040;2023-06-22T11:47:18;1.27;;;1.10;;
12129;SDS011;6128;59.340;18.040;2023-06-22T11:49:45;2.05;;;1.58;;
12129;SDS011;6128;59.340;18.040;2023-06-22T11:52:13;3.80;;;1.42;;
12129;SDS011;6128;59.340;18.040;2023-06-22T11:54:40;2.15;;;1.30;;
12129;SDS011;6128;59.340;18.040;2023-06-22T11:57:11;1.60;;;1.50;;
12129;SDS011;6128;59.340;18.040;2023-06-22T11:59:39;1.88;;;1.50;;
12129;SDS011;6128;59.340;18.040;2023-06-22T12:02:06;2.97;;;1.33;;
12129;SDS011;6128;59.340;18.040;2023-06-22T12:04:34;1.98;;;1.67;;
12129;SDS011;6128;59.340;18.040;2023-06-22T12:07:01;1.98;;;1.40;;
12129;SDS011;6128;59.340;18.040;2023-06-22T12:09:29;2.50;;;1.50;;
12129;SDS011;6128;59.340;18.040;2023-06-22T12:11:56;4.68;;;1.73;;
12129;SDS011;6128;59.340;18.040;2023-06-22T12:14:23;2.75;;;1.50;;
12129;SDS011;6128;59.340;18.040;2023-06-22T12:16:52;3.65;;;1.75;;
12129;SDS011;6128;59.340;18.040;2023-06-22T12:19:19;2.80;;;1.75;;
12129;SDS011;6128;59.340;18.040;2023-06-22T12:21:46;1.83;;;1.67;;
12129;SDS011;6128;59.340;18.040;2023-06-22T12:24:13;5.78;;;1.95;;
12129;SDS011;6128;59.340;18.040;2023-06-22T12:26:40;3.88;;;1.77;;
12129;SDS011;6128;59.340;18.040;2023-06-22T12:29:08;2.78;;;1.80;;
12129;SDS011;6128;59.340;18.040;2023-06-22T12:31:35;3.45;;;1.83;;
12129;SDS011;6128;59.340;18.040;2023-06-22T12:34:05;3.05;;;1.90;;
12129;SDS011;6128;59.340;18.040;2023-06-22T12:36:32;2.00;;;1.60;;
12129;SDS011;6128;59.340;18.040;2023-06-22T12:38:59;2.63;;;1.73;;
12129;SDS011;6128;59.340;18.040;2023-06-22T12:41:26;2.85;;;1.67;;
12129;SDS011;6128;59.340;18.040;2023-06-22T12:43:53;2.70;;;1.80;;
12129;SDS011;6128;59.340;18.040;2023-06-22T12:46:21;1.90;;;1.65;;
12129;SDS011;6128;59.340;18.040;2023-06-22T12:48:50;2.97;;;1.67;;
12129;SDS011;6128;59.340;18.040;2023-06-22T12:51:22;2.42;;;1.75;;
12129;SDS011;6128;59.340;18.040;2023-06-22T12:53:49;3.70;;;2.10;;
12129;SDS011;6128;59.340;18.040;2023-06-22T12:56:17;3.50;;;1.73;;
12129;SDS011;6128;59.340;18.040;2023-06-22T12:58:44;2.38;;;1.80;;
12129;SDS011;6128;59.340;18.040;2023-06-22T13:01:11;2.08;;;1.60;;
12129;SDS011;6128;59.340;18.040;2023-06-22T13:03:38;2.35;;;1.63;;
12129;SDS011;6128;59.340;18.040;2023-06-22T13:06:05;3.13;;;1.60;;
12129;SDS011;6128;59.340;18.040;2023-06-22T13:08:34;2.10;;;1.90;;
12129;SDS011;6128;59.340;18.040;2023-06-22T13:11:01;5.47;;;2.00;;
12129;SDS011;6128;59.340;18.040;2023-06-22T13:13:28;45.40;;;6.80;;
12129;SDS011;6128;59.340;18.040;2023-06-22T13:15:55;3.33;;;1.73;;
12129;SDS011;6128;59.340;18.040;2023-06-22T13:18:22;5.78;;;2.13;;
12129;SDS011;6128;59.340;18.040;2023-06-22T13:20:49;1.58;;;1.48;;
12129;SDS011;6128;59.340;18.040;2023-06-22T13:23:19;4.38;;;1.77;;
12129;SDS011;6128;59.340;18.040;2023-06-22T13:25:48;4.72;;;1.60;;
12129;SDS011;6128;59.340;18.040;2023-06-22T13:28:15;2.67;;;1.65;;
12129;SDS011;6128;59.340;18.040;2023-06-22T13:30:42;3.00;;;2.00;;
12129;SDS011;6128;59.340;18.040;2023-06-22T13:33:12;2.45;;;1.70;;
12129;SDS011;6128;59.340;18.040;2023-06-22T13:35:39;2.65;;;1.55;;
12129;SDS011;6128;59.340;18.040;2023-06-22T13:38:07;2.63;;;1.88;;
12129;SDS011;6128;59.340;18.040;2023-06-22T13:40:34;3.22;;;1.70;;
12129;SDS011;6128;59.340;18.040;2023-06-22T13:43:05;1.80;;;1.60;;
12129;SDS011;6128;59.340;18.040;2023-06-22T13:45:33;5.43;;;1.73;;
12129;SDS011;6128;59.340;18.040;2023-06-22T13:48:00;2.95;;;1.70;;
12129;SDS011;6128;59.340;18.040;2023-06-22T13:50:27;2.67;;;1.70;;
12129;SDS011;6128;59.340;18.040;2023-06-22T13:52:55;2.65;;;2.00;;
12129;SDS011;6128;59.340;18.040;2023-06-22T13:55:22;5.65;;;2.10;;
12129;SDS011;6128;59.340;18.040;2023-06-22T13:57:49;4.85;;;1.70;;
12129;SDS011;6128;59.340;18.040;2023-06-22T14:00:18;5.00;;;2.00;;
12129;SDS011;6128;59.340;18.040;2023-06-22T14:02:46;1.67;;;1.42;;
12129;SDS011;6128;59.340;18.040;2023-06-22T14:05:13;4.53;;;1.67;;
12129;SDS011;6128;59.340;18.040;2023-06-22T14:07:40;3.35;;;1.92;;
12129;SDS011;6128;59.340;18.040;2023-06-22T14:10:08;2.92;;;1.85;;
12129;SDS011;6128;59.340;18.040;2023-06-22T14:12:35;1.75;;;1.65;;
12129;SDS011;6128;59.340;18.040;2023-06-22T14:15:03;2.83;;;1.55;;
12129;SDS011;6128;59.340;18.040;2023-06-22T14:17:32;2.03;;;1.83;;
12129;SDS011;6128;59.340;18.040;2023-06-22T14:19:59;5.85;;;2.13;;
12129;SDS011;6128;59.340;18.040;2023-06-22T14:22:26;3.55;;;2.00;;
12129;SDS011;6128;59.340;18.040;2023-06-22T14:24:54;3.28;;;1.90;;
12129;SDS011;6128;59.340;18.040;2023-06-22T14:27:22;2.10;;;1.60;;
12129;SDS011;6128;59.340;18.040;2023-06-22T14:29:50;3.20;;;1.95;;
12129;SDS011;6128;59.340;18.040;2023-06-22T14:32:17;1.85;;;1.60;;
12129;SDS011;6128;59.340;18.040;2023-06-22T14:34:45;2.28;;;1.67;;
12129;SDS011;6128;59.340;18.040;2023-06-22T14:37:15;3.22;;;1.60;;
12129;SDS011;6128;59.340;18.040;2023-06-22T14:39:42;3.40;;;1.83;;
12129;SDS011;6128;59.340;18.040;2023-06-22T14:42:09;1.95;;;1.80;;
12129;SDS011;6128;59.340;18.040;2023-06-22T14:44:36;5.18;;;3.35;;
12129;SDS011;6128;59.340;18.040;2023-06-22T14:47:04;2.25;;;1.77;;
12129;SDS011;6128;59.340;18.040;2023-06-22T14:49:31;2.22;;;1.70;;
12129;SDS011;6128;59.340;18.040;2023-06-22T14:52:00;1.77;;;1.60;;
12129;SDS011;6128;59.340;18.040;2023-06-22T14:54:28;1.77;;;1.67;;